createdAt,value
2018-12-07T00:00:56.245Z,1011.12
2018-12-07T00:01:56.239Z,1011.16
2018-12-07T00:02:56.254Z,1011.10
2018-12-07T00:03:56.357Z,1011.10
2018-12-07T00:04:56.196Z,1011.11
2018-12-07T00:05:56.195Z,1011.11
2018-12-07T00:06:56.228Z,1011.02
2018-12-07T00:07:56.226Z,1011.00
2018-12-07T00:08:56.198Z,1010.98
2018-12-07T00:09:56.149Z,1010.99
2018-12-07T00:10:56.131Z,1010.95
2018-12-07T00:11:56.125Z,1010.91
2018-12-07T00:12:56.250Z,1010.93
2018-12-07T00:13:56.108Z,1010.87
2018-12-07T00:14:56.113Z,1010.86
2018-12-07T00:15:56.117Z,1010.85
2018-12-07T00:16:56.091Z,1010.82
2018-12-07T00:17:56.126Z,1010.81
2018-12-07T00:18:56.092Z,1010.78
2018-12-07T00:19:56.093Z,1010.79
2018-12-07T00:20:56.090Z,1010.81
2018-12-07T00:21:56.029Z,1010.74
2018-12-07T00:22:56.121Z,1010.83
2018-12-07T00:23:55.991Z,1010.77
2018-12-07T00:24:55.981Z,1010.78
2018-12-07T00:25:55.972Z,1010.83
2018-12-07T00:26:55.955Z,1010.76
2018-12-07T00:27:56.067Z,1010.75
2018-12-07T00:28:55.939Z,1010.77
2018-12-07T00:29:55.924Z,1010.70
2018-12-07T00:30:55.910Z,1010.75
2018-12-07T00:31:55.900Z,1010.70
2018-12-07T00:32:55.929Z,1010.70
2018-12-07T00:33:55.884Z,1010.68
2018-12-07T00:34:55.867Z,1010.67
2018-12-07T00:35:55.862Z,1010.73
2018-12-07T00:36:55.847Z,1010.66
2018-12-07T00:37:55.858Z,1010.66
2018-12-07T00:38:55.821Z,1010.63
2018-12-07T00:39:55.838Z,1010.66
2018-12-07T00:40:55.958Z,1010.59
2018-12-07T00:41:55.795Z,1010.63
2018-12-07T00:42:55.793Z,1010.58
2018-12-07T00:43:55.811Z,1010.65
2018-12-07T00:44:55.756Z,1010.58
2018-12-07T00:45:55.791Z,1010.57
2018-12-07T00:46:55.748Z,1010.51
2018-12-07T00:47:55.733Z,1010.55
2018-12-07T00:48:55.708Z,1010.56
2018-12-07T00:49:55.701Z,1010.54
2018-12-07T00:50:55.714Z,1010.50
2018-12-07T00:51:55.725Z,1010.54
2018-12-07T00:52:55.666Z,1010.48
2018-12-07T00:53:55.665Z,1010.43
2018-12-07T00:54:55.643Z,1010.44
2018-12-07T00:55:55.635Z,1010.39
2018-12-07T00:56:55.656Z,1010.43
2018-12-07T00:57:55.644Z,1010.44
2018-12-07T00:58:55.604Z,1010.41
2018-12-07T00:59:55.664Z,1010.37
2018-12-07T01:00:55.577Z,1010.41
2018-12-07T01:01:55.649Z,1010.34
2018-12-07T01:02:55.555Z,1010.35
2018-12-07T01:03:55.546Z,1010.43
2018-12-07T01:04:55.634Z,1010.46
2018-12-07T01:05:55.525Z,1010.38
2018-12-07T01:06:55.569Z,1010.41
2018-12-07T01:07:55.526Z,1010.35
2018-12-07T01:08:55.529Z,1010.41
2018-12-07T01:09:55.488Z,1010.32
2018-12-07T01:10:55.471Z,1010.33
2018-12-07T01:11:55.457Z,1010.32
2018-12-07T01:12:55.445Z,1010.38
2018-12-07T01:13:55.481Z,1010.29
2018-12-07T01:14:55.420Z,1010.46
2018-12-07T01:15:55.410Z,1010.29
2018-12-07T01:16:55.404Z,1010.33
2018-12-07T01:17:55.387Z,1010.29
2018-12-07T01:18:55.523Z,1010.26
2018-12-07T01:19:55.391Z,1010.32
2018-12-07T01:20:55.466Z,1010.30
2018-12-07T01:21:55.346Z,1010.23
2018-12-07T01:22:55.337Z,1010.22
2018-12-07T01:23:55.379Z,1010.30
2018-12-07T01:24:55.318Z,1010.24
2018-12-07T01:25:55.332Z,1010.25
2018-12-07T01:26:55.326Z,1010.22
2018-12-07T01:27:55.281Z,1010.21
2018-12-07T01:28:55.266Z,1010.22
2018-12-07T01:29:55.285Z,1010.18
2018-12-07T01:30:55.250Z,1010.17
2018-12-07T01:31:55.259Z,1010.15
2018-12-07T01:32:55.225Z,1010.16
2018-12-07T01:33:55.214Z,1010.16
2018-12-07T01:34:55.209Z,1010.18
2018-12-07T01:35:55.195Z,1010.11
2018-12-07T01:36:55.242Z,1010.19
2018-12-07T01:37:55.171Z,1010.18
2018-12-07T01:38:55.159Z,1010.25
2018-12-07T01:39:55.188Z,1010.17
2018-12-07T01:40:55.137Z,1010.11
2018-12-07T01:41:55.179Z,1010.12
2018-12-07T01:42:55.115Z,1010.16
2018-12-07T01:43:55.202Z,1010.08
2018-12-07T01:44:55.092Z,1010.12
2018-12-07T01:45:55.086Z,1010.03
2018-12-07T01:46:55.071Z,1010.02
2018-12-07T01:47:55.061Z,1010.03
2018-12-07T01:48:55.083Z,1010.04
2018-12-07T01:49:55.037Z,1010.01
2018-12-07T01:50:55.034Z,1010.05
2018-12-07T01:51:55.017Z,1010.05
2018-12-07T01:52:55.041Z,1010.03
2018-12-07T01:53:54.992Z,1009.99
2018-12-07T01:54:54.985Z,1009.95
2018-12-07T01:55:55.032Z,1010.01
2018-12-07T01:56:54.969Z,1009.93
2018-12-07T01:57:54.977Z,1009.89
2018-12-07T01:58:54.940Z,1009.86
2018-12-07T01:59:54.927Z,1009.92
2018-12-07T02:00:54.920Z,1009.89
2018-12-07T02:01:54.905Z,1009.88
2018-12-07T02:02:54.924Z,1009.89
2018-12-07T02:03:54.914Z,1009.84
2018-12-07T02:04:54.893Z,1009.88
2018-12-07T02:05:54.862Z,1009.86
2018-12-07T02:06:54.855Z,1009.90
2018-12-07T02:07:54.839Z,1009.82
2018-12-07T02:08:54.866Z,1009.83
2018-12-07T02:09:54.819Z,1009.74
2018-12-07T02:10:54.812Z,1009.80
2018-12-07T02:11:54.811Z,1009.77
2018-12-07T02:12:54.787Z,1009.74
2018-12-07T02:13:54.811Z,1009.76
2018-12-07T02:14:54.759Z,1009.68
2018-12-07T02:15:54.784Z,1009.75
2018-12-07T02:16:54.735Z,1009.73
2018-12-07T02:17:54.728Z,1009.69
2018-12-07T02:18:54.761Z,1009.70
2018-12-07T02:19:54.737Z,1009.64
2018-12-07T02:20:54.693Z,1009.65
2018-12-07T02:21:54.687Z,1009.65
2018-12-07T02:22:54.671Z,1009.60
2018-12-07T02:23:54.703Z,1009.63
2018-12-07T02:24:54.678Z,1009.60
2018-12-07T02:25:54.644Z,1009.56
2018-12-07T02:26:54.628Z,1009.47
2018-12-07T02:27:54.673Z,1009.45
2018-12-07T02:28:54.613Z,1009.54
2018-12-07T02:29:54.593Z,1009.45
2018-12-07T02:30:54.583Z,1009.43
2018-12-07T02:31:54.608Z,1009.47
2018-12-07T02:32:54.560Z,1009.45
2018-12-07T02:33:54.559Z,1009.48
2018-12-07T02:34:54.545Z,1009.47
2018-12-07T02:35:54.578Z,1009.48
2018-12-07T02:36:54.554Z,1009.44
2018-12-07T02:37:54.541Z,1009.39
2018-12-07T02:38:54.500Z,1009.43
2018-12-07T02:39:54.484Z,1009.43
2018-12-07T02:40:54.504Z,1009.47
2018-12-07T02:41:54.489Z,1009.46
2018-12-07T02:42:54.453Z,1009.41
2018-12-07T02:43:54.441Z,1009.42
2018-12-07T02:44:54.429Z,1009.43
2018-12-07T02:45:54.424Z,1009.33
2018-12-07T02:46:54.436Z,1009.35
2018-12-07T02:47:54.416Z,1009.39
2018-12-07T02:48:54.415Z,1009.42
2018-12-07T02:49:54.388Z,1009.44
2018-12-07T02:50:54.362Z,1009.36
2018-12-07T02:51:54.394Z,1009.37
2018-12-07T02:52:54.341Z,1009.32
2018-12-07T02:53:54.335Z,1009.36
2018-12-07T02:54:54.316Z,1009.41
2018-12-07T02:55:54.306Z,1009.31
2018-12-07T02:56:54.339Z,1009.29
2018-12-07T02:57:54.287Z,1009.27
2018-12-07T02:58:54.319Z,1009.29
2018-12-07T02:59:54.330Z,1009.25
2018-12-07T03:00:54.258Z,1009.30
2018-12-07T03:01:54.282Z,1009.28
2018-12-07T03:02:54.260Z,1009.22
2018-12-07T03:03:54.219Z,1009.24
2018-12-07T03:04:54.207Z,1009.18
2018-12-07T03:05:54.200Z,1009.17
2018-12-07T03:06:54.195Z,1009.20
2018-12-07T03:07:54.222Z,1009.16
2018-12-07T03:08:54.163Z,1009.15
2018-12-07T03:09:54.153Z,1009.14
2018-12-07T03:10:54.144Z,1009.15
2018-12-07T03:11:54.133Z,1009.13
2018-12-07T03:12:54.178Z,1009.08
2018-12-07T03:13:54.142Z,1009.06
2018-12-07T03:14:54.103Z,1009.02
2018-12-07T03:15:54.100Z,1009.00
2018-12-07T03:16:54.084Z,1008.99
2018-12-07T03:17:54.131Z,1009.02
2018-12-07T03:18:54.086Z,1008.99
2018-12-07T03:19:54.043Z,1009.01
2018-12-07T03:20:54.033Z,1009.06
2018-12-07T03:21:54.022Z,1008.98
2018-12-07T03:22:54.039Z,1009.01
2018-12-07T03:23:53.999Z,1009.01
2018-12-07T03:24:54.032Z,1008.99
2018-12-07T03:25:53.981Z,1008.86
2018-12-07T03:26:53.967Z,1008.96
2018-12-07T03:27:53.960Z,1008.86
2018-12-07T03:28:53.975Z,1008.82
2018-12-07T03:29:53.936Z,1008.86
2018-12-07T03:30:53.949Z,1008.77
2018-12-07T03:31:54.030Z,1008.82
2018-12-07T03:32:53.901Z,1008.80
2018-12-07T03:33:53.925Z,1008.86
2018-12-07T03:34:53.877Z,1008.81
2018-12-07T03:35:53.919Z,1008.76
2018-12-07T03:36:53.860Z,1008.81
2018-12-07T03:37:53.850Z,1008.75
2018-12-07T03:38:53.838Z,1008.77
2018-12-07T03:39:53.831Z,1008.74
2018-12-07T03:40:53.837Z,1008.71
2018-12-07T03:41:53.847Z,1008.68
2018-12-07T03:42:53.795Z,1008.75
2018-12-07T03:43:53.785Z,1008.73
2018-12-07T03:44:53.769Z,1008.71
2018-12-07T03:45:53.755Z,1008.66
2018-12-07T03:46:53.825Z,1008.64
2018-12-07T03:47:53.739Z,1008.59
2018-12-07T03:48:53.723Z,1008.66
2018-12-07T03:49:53.709Z,1008.60
2018-12-07T03:50:53.702Z,1008.55
2018-12-07T03:51:53.722Z,1008.57
2018-12-07T03:52:53.682Z,1008.51
2018-12-07T03:53:53.666Z,1008.65
2018-12-07T03:54:53.664Z,1008.49
2018-12-07T03:55:53.713Z,1008.53
2018-12-07T03:56:53.638Z,1008.50
2018-12-07T03:57:53.663Z,1008.49
2018-12-07T03:58:53.615Z,1008.50
2018-12-07T03:59:53.610Z,1008.51
2018-12-07T04:00:53.596Z,1008.48
2018-12-07T04:01:53.611Z,1008.40
2018-12-07T04:02:53.567Z,1008.44
2018-12-07T04:03:53.593Z,1008.37
2018-12-07T04:04:53.549Z,1008.45
2018-12-07T04:05:53.555Z,1008.40
2018-12-07T04:06:53.569Z,1008.31
2018-12-07T04:07:53.524Z,1008.37
2018-12-07T04:08:53.512Z,1008.34
2018-12-07T04:09:53.498Z,1008.33
2018-12-07T04:10:53.529Z,1008.26
2018-12-07T04:11:53.539Z,1008.24
2018-12-07T04:12:53.461Z,1008.27
2018-12-07T04:13:53.462Z,1008.25
2018-12-07T04:14:53.440Z,1008.22
2018-12-07T04:15:53.464Z,1008.26
2018-12-07T04:16:53.441Z,1008.24
2018-12-07T04:17:53.411Z,1008.24
2018-12-07T04:18:53.404Z,1008.22
2018-12-07T04:19:53.386Z,1008.21
2018-12-07T04:20:53.416Z,1008.14
2018-12-07T04:21:53.375Z,1008.20
2018-12-07T04:22:53.381Z,1008.12
2018-12-07T04:23:53.343Z,1008.16
2018-12-07T04:24:53.326Z,1008.11
2018-12-07T04:25:53.318Z,1008.17
2018-12-07T04:26:53.337Z,1008.17
2018-12-07T04:27:53.321Z,1008.15
2018-12-07T04:28:53.329Z,1008.07
2018-12-07T04:29:53.316Z,1008.11
2018-12-07T04:30:53.263Z,1008.13
2018-12-07T04:31:53.248Z,1008.17
2018-12-07T04:32:53.235Z,1008.15
2018-12-07T04:33:53.276Z,1008.12
2018-12-07T04:34:53.239Z,1008.08
2018-12-07T04:35:53.234Z,1008.10
2018-12-07T04:36:53.197Z,1008.01
2018-12-07T04:37:53.214Z,1008.07
2018-12-07T04:38:53.170Z,1007.96
2018-12-07T04:39:53.159Z,1007.98
2018-12-07T04:40:53.153Z,1007.91
2018-12-07T04:41:53.148Z,1008.01
2018-12-07T04:42:53.176Z,1008.08
2018-12-07T04:43:53.120Z,1007.96
2018-12-07T04:44:53.112Z,1007.97
2018-12-07T04:45:53.118Z,1007.99
2018-12-07T04:46:53.090Z,1007.96
2018-12-07T04:47:53.145Z,1007.92
2018-12-07T04:48:53.144Z,1007.97
2018-12-07T04:49:53.083Z,1007.98
2018-12-07T04:50:53.069Z,1007.93
2018-12-07T04:51:53.033Z,1007.95
2018-12-07T04:52:53.019Z,1007.86
2018-12-07T04:53:53.023Z,1007.83
2018-12-07T04:54:53.020Z,1007.89
2018-12-07T04:55:52.991Z,1007.79
2018-12-07T04:56:53.039Z,1007.80
2018-12-07T04:57:52.989Z,1007.81
2018-12-07T04:58:52.964Z,1007.82
2018-12-07T04:59:52.973Z,1007.77
2018-12-07T05:00:52.934Z,1007.76
2018-12-07T05:01:52.928Z,1007.81
2018-12-07T05:02:52.912Z,1007.78
2018-12-07T05:03:52.912Z,1007.79
2018-12-07T05:04:52.985Z,1007.76
2018-12-07T05:05:52.873Z,1007.77
2018-12-07T05:06:52.906Z,1007.77
2018-12-07T05:07:52.850Z,1007.74
2018-12-07T05:08:52.843Z,1007.73
2018-12-07T05:09:52.862Z,1007.78
2018-12-07T05:10:52.817Z,1007.72
2018-12-07T05:11:52.810Z,1007.81
2018-12-07T05:12:52.802Z,1007.66
2018-12-07T05:13:52.846Z,1007.68
2018-12-07T05:14:52.808Z,1007.65
2018-12-07T05:15:52.770Z,1007.64
2018-12-07T05:16:52.780Z,1007.62
2018-12-07T05:17:52.748Z,1007.59
2018-12-07T05:18:52.742Z,1007.52
2018-12-07T05:19:52.732Z,1007.49
2018-12-07T05:20:52.707Z,1007.45
2018-12-07T05:21:52.726Z,1007.51
2018-12-07T05:22:52.685Z,1007.42
2018-12-07T05:23:52.679Z,1007.40
2018-12-07T05:24:52.681Z,1007.39
2018-12-07T05:25:52.690Z,1007.42
2018-12-07T05:26:52.684Z,1007.40
2018-12-07T05:27:52.631Z,1007.46
2018-12-07T05:28:53.140Z,1007.41
2018-12-07T05:29:52.613Z,1007.37
2018-12-07T05:30:52.597Z,1007.35
2018-12-07T05:31:52.620Z,1007.31
2018-12-07T05:32:52.580Z,1007.33
2018-12-07T05:33:52.568Z,1007.31
2018-12-07T05:34:52.565Z,1007.32
2018-12-07T05:35:57.736Z,1007.30
2018-12-07T05:36:52.530Z,1007.25
2018-12-07T05:37:52.523Z,1007.24
2018-12-07T05:38:52.529Z,1007.23
2018-12-07T05:39:52.537Z,1007.24
2018-12-07T05:40:52.494Z,1007.29
2018-12-07T05:41:52.494Z,1007.25
2018-12-07T05:42:52.466Z,1007.25
2018-12-07T05:43:52.454Z,1007.20
2018-12-07T05:44:52.492Z,1007.21
2018-12-07T05:45:52.435Z,1007.17
2018-12-07T05:46:52.421Z,1007.18
2018-12-07T05:47:52.412Z,1007.17
2018-12-07T05:48:52.481Z,1007.18
2018-12-07T05:49:52.476Z,1007.09
2018-12-07T05:50:52.406Z,1007.20
2018-12-07T05:51:52.411Z,1007.10
2018-12-07T05:52:52.392Z,1007.01
2018-12-07T05:53:52.345Z,1007.08
2018-12-07T05:54:52.330Z,1007.10
2018-12-07T05:55:52.380Z,1007.04
2018-12-07T05:56:52.314Z,1007.00
2018-12-07T05:57:52.295Z,1007.05
2018-12-07T05:58:52.297Z,1006.99
2018-12-07T05:59:52.326Z,1006.97
2018-12-07T06:00:52.383Z,1007.04
2018-12-07T06:01:52.297Z,1006.95
2018-12-07T06:02:52.292Z,1007.00
2018-12-07T06:03:52.244Z,1006.99
2018-12-07T06:04:52.220Z,1006.93
2018-12-07T06:05:52.209Z,1006.92
2018-12-07T06:06:52.235Z,1006.95
2018-12-07T06:07:52.214Z,1006.88
2018-12-07T06:08:52.175Z,1006.89
2018-12-07T06:09:52.169Z,1006.92
2018-12-07T06:10:52.161Z,1006.82
2018-12-07T06:11:52.146Z,1006.79
2018-12-07T06:12:52.192Z,1006.82
2018-12-07T06:13:52.127Z,1006.82
2018-12-07T06:14:52.108Z,1006.81
2018-12-07T06:15:52.101Z,1006.74
2018-12-07T06:16:52.120Z,1006.79
2018-12-07T06:17:52.110Z,1006.74
2018-12-07T06:18:52.069Z,1006.79
2018-12-07T06:19:52.060Z,1006.72
2018-12-07T06:20:52.047Z,1006.71
2018-12-07T06:21:52.035Z,1006.70
2018-12-07T06:22:52.054Z,1006.74
2018-12-07T06:23:52.008Z,1006.76
2018-12-07T06:24:52.110Z,1006.68
2018-12-07T06:25:51.992Z,1006.74
2018-12-07T06:26:51.978Z,1006.74
2018-12-07T06:27:52.026Z,1006.68
2018-12-07T06:28:51.958Z,1006.65
2018-12-07T06:29:51.946Z,1006.63
2018-12-07T06:30:51.947Z,1006.63
2018-12-07T06:31:51.925Z,1006.66
2018-12-07T06:32:51.957Z,1006.63
2018-12-07T06:33:51.903Z,1006.68
2018-12-07T06:34:51.892Z,1006.60
2018-12-07T06:35:51.896Z,1006.58
2018-12-07T06:36:51.870Z,1006.67
2018-12-07T06:37:51.882Z,1006.57
2018-12-07T06:38:51.844Z,1006.55
2018-12-07T06:39:52.398Z,1006.61
2018-12-07T06:40:51.886Z,1006.56
2018-12-07T06:41:51.814Z,1006.53
2018-12-07T06:42:51.845Z,1006.57
2018-12-07T06:43:51.798Z,1006.53
2018-12-07T06:44:51.778Z,1006.53
2018-12-07T06:45:51.769Z,1006.43
2018-12-07T06:46:51.758Z,1006.44
2018-12-07T06:47:51.783Z,1006.42
2018-12-07T06:48:51.740Z,1006.44
2018-12-07T06:49:51.728Z,1006.45
2018-12-07T06:50:51.714Z,1006.45
2018-12-07T06:51:51.703Z,1006.40
2018-12-07T06:52:51.692Z,1006.44
2018-12-07T06:53:51.712Z,1006.46
2018-12-07T06:54:51.668Z,1006.51
2018-12-07T06:55:51.662Z,1006.44
2018-12-07T06:56:51.645Z,1006.37
2018-12-07T06:57:51.639Z,1006.41
2018-12-07T06:58:51.671Z,1006.42
2018-12-07T06:59:51.618Z,1006.41
2018-12-07T07:00:51.800Z,1006.34
2018-12-07T07:01:51.589Z,1006.43
2018-12-07T07:02:51.585Z,1006.39
2018-12-07T07:03:51.746Z,1006.43
2018-12-07T07:04:51.615Z,1006.36
2018-12-07T07:05:51.548Z,1006.36
2018-12-07T07:06:51.546Z,1006.32
2018-12-07T07:07:51.540Z,1006.30
2018-12-07T07:08:51.517Z,1006.28
2018-12-07T07:09:51.549Z,1006.32
2018-12-07T07:10:51.495Z,1006.29
2018-12-07T07:11:51.481Z,1006.26
2018-12-07T07:12:51.469Z,1006.26
2018-12-07T07:13:51.459Z,1006.23
2018-12-07T07:14:51.471Z,1006.24
2018-12-07T07:15:51.438Z,1006.27
2018-12-07T07:16:51.427Z,1006.23
2018-12-07T07:17:51.489Z,1006.24
2018-12-07T07:18:51.417Z,1006.20
2018-12-07T07:19:51.468Z,1006.13
2018-12-07T07:20:51.384Z,1006.18
2018-12-07T07:21:51.370Z,1006.22
2018-12-07T07:22:51.372Z,1006.10
2018-12-07T07:23:51.351Z,1006.12
2018-12-07T07:24:51.420Z,1006.12
2018-12-07T07:25:51.335Z,1006.09
2018-12-07T07:26:51.319Z,1006.02
2018-12-07T07:27:51.309Z,1006.06
2018-12-07T07:28:52.161Z,1006.11
2018-12-07T07:29:51.288Z,1006.03
2018-12-07T07:30:51.299Z,1006.03
2018-12-07T07:31:51.259Z,1005.95
2018-12-07T07:32:51.248Z,1006.00
2018-12-07T07:33:51.239Z,1006.03
2018-12-07T07:34:51.242Z,1006.02
2018-12-07T07:35:51.246Z,1005.99
2018-12-07T07:36:51.214Z,1005.98
2018-12-07T07:37:51.193Z,1005.94
2018-12-07T07:38:51.185Z,1006.04
2018-12-07T07:39:51.217Z,1005.99
2018-12-07T07:40:51.170Z,1005.95
2018-12-07T07:41:51.180Z,1006.01
2018-12-07T07:42:51.140Z,1006.01
2018-12-07T07:43:51.149Z,1005.98
2018-12-07T07:44:51.121Z,1005.96
2018-12-07T07:45:51.111Z,1005.99
2018-12-07T07:46:51.146Z,1005.94
2018-12-07T07:47:51.084Z,1005.93
2018-12-07T07:48:51.098Z,1005.93
2018-12-07T07:49:51.098Z,1005.93
2018-12-07T07:50:51.050Z,1005.97
2018-12-07T07:51:51.082Z,1005.93
2018-12-07T07:52:51.680Z,1005.93
2018-12-07T07:53:51.017Z,1005.90
2018-12-07T07:54:51.008Z,1005.87
2018-12-07T07:55:51.004Z,1005.91
2018-12-07T07:56:51.063Z,1005.86
2018-12-07T07:57:50.970Z,1005.85
2018-12-07T07:58:51.038Z,1005.83
2018-12-07T07:59:50.952Z,1005.85
2018-12-07T08:00:51.019Z,1005.90
2018-12-07T08:01:50.967Z,1005.84
2018-12-07T08:02:50.917Z,1005.80
2018-12-07T08:03:50.913Z,1005.84
2018-12-07T08:04:50.942Z,1005.78
2018-12-07T08:05:50.889Z,1005.80
2018-12-07T08:06:50.879Z,1005.80
2018-12-07T08:07:50.891Z,1005.75
2018-12-07T08:08:50.851Z,1005.83
2018-12-07T08:09:50.843Z,1005.74
2018-12-07T08:10:50.834Z,1005.70
2018-12-07T08:11:50.817Z,1005.75
2018-12-07T08:12:50.866Z,1005.68
2018-12-07T08:13:50.812Z,1005.75
2018-12-07T08:14:50.790Z,1005.66
2018-12-07T08:15:50.774Z,1005.66
2018-12-07T08:16:50.853Z,1005.65
2018-12-07T08:17:50.755Z,1005.58
2018-12-07T08:18:50.837Z,1005.56
2018-12-07T08:19:50.734Z,1005.55
2018-12-07T08:20:50.728Z,1005.58
2018-12-07T08:21:50.710Z,1005.60
2018-12-07T08:22:50.706Z,1005.57
2018-12-07T08:23:50.714Z,1005.53
2018-12-07T08:24:50.682Z,1005.46
2018-12-07T08:25:50.664Z,1005.48
2018-12-07T08:26:50.654Z,1005.52
2018-12-07T08:27:50.659Z,1005.54
2018-12-07T08:28:50.664Z,1005.54
2018-12-07T08:29:50.624Z,1005.53
2018-12-07T08:30:50.626Z,1005.48
2018-12-07T08:31:50.604Z,1005.49
2018-12-07T08:32:50.596Z,1005.47
2018-12-07T08:33:50.599Z,1005.46
2018-12-07T08:34:50.572Z,1005.43
2018-12-07T08:35:50.579Z,1005.48
2018-12-07T08:36:50.566Z,1005.39
2018-12-07T08:37:50.544Z,1005.46
2018-12-07T08:38:50.550Z,1005.36
2018-12-07T08:39:50.512Z,1005.41
2018-12-07T08:40:50.499Z,1005.38
2018-12-07T08:41:50.497Z,1005.38
2018-12-07T08:42:50.485Z,1005.34
2018-12-07T08:43:50.500Z,1005.38
2018-12-07T08:44:50.486Z,1005.25
2018-12-07T08:45:50.445Z,1005.27
2018-12-07T08:46:50.440Z,1005.35
2018-12-07T08:47:50.442Z,1005.15
2018-12-07T08:48:50.414Z,1005.20
2018-12-07T08:49:50.446Z,1005.19
2018-12-07T08:50:50.390Z,1005.13
2018-12-07T08:51:50.395Z,1005.17
2018-12-07T08:52:50.386Z,1005.16
2018-12-07T08:53:50.359Z,1005.08
2018-12-07T08:54:50.390Z,1005.03
2018-12-07T08:55:50.410Z,1005.13
2018-12-07T08:56:50.323Z,1005.03
2018-12-07T08:57:50.311Z,1005.02
2018-12-07T08:58:50.302Z,1005.07
2018-12-07T08:59:50.299Z,1005.01
2018-12-07T09:00:50.324Z,1005.00
2018-12-07T09:01:50.270Z,1005.00
2018-12-07T09:02:50.258Z,1004.96
2018-12-07T09:03:50.247Z,1004.98
2018-12-07T09:04:50.235Z,1004.94
2018-12-07T09:05:50.259Z,1004.95
2018-12-07T09:06:50.234Z,1004.90
2018-12-07T09:07:50.208Z,1004.85
2018-12-07T09:08:50.205Z,1004.86
2018-12-07T09:09:50.185Z,1004.85
2018-12-07T09:10:50.712Z,1005.02
2018-12-07T09:11:50.193Z,1004.76
2018-12-07T09:12:50.159Z,1004.74
2018-12-07T09:13:50.135Z,1004.77
2018-12-07T09:14:50.130Z,1004.77
2018-12-07T09:15:50.188Z,1004.78
2018-12-07T09:16:50.109Z,1004.71
2018-12-07T09:17:50.136Z,1004.77
2018-12-07T09:18:50.078Z,1004.75
2018-12-07T09:19:50.075Z,1004.73
2018-12-07T09:20:53.883Z,1004.68
2018-12-07T09:21:50.050Z,1004.62
2018-12-07T09:22:50.077Z,1004.60
2018-12-07T09:23:50.030Z,1004.57
2018-12-07T09:24:50.024Z,1004.50
2018-12-07T09:25:50.071Z,1004.62
2018-12-07T09:26:49.994Z,1004.50
2018-12-07T09:27:49.985Z,1004.66
2018-12-07T09:28:50.016Z,1004.52
2018-12-07T09:29:50.007Z,1004.55
2018-12-07T09:30:49.951Z,1004.54
2018-12-07T09:31:49.946Z,1004.50
2018-12-07T09:32:49.925Z,1004.46
2018-12-07T09:33:49.972Z,1004.58
2018-12-07T09:34:49.909Z,1004.48
2018-12-07T09:35:49.901Z,1004.49
2018-12-07T09:36:49.891Z,1004.48
2018-12-07T09:37:49.880Z,1004.51
2018-12-07T09:38:50.071Z,1004.38
2018-12-07T09:39:50.254Z,1004.34
2018-12-07T09:40:49.952Z,1004.33
2018-12-07T09:41:49.916Z,1004.28
2018-12-07T09:42:49.820Z,1004.12
2018-12-07T09:43:49.837Z,1004.18
2018-12-07T09:44:49.803Z,1004.08
2018-12-07T09:45:49.787Z,1004.05
2018-12-07T09:46:49.774Z,1004.17
2018-12-07T09:47:49.763Z,1004.09
2018-12-07T09:48:49.750Z,1004.03
2018-12-07T09:49:49.771Z,1003.95
2018-12-07T09:50:49.751Z,1004.07
2018-12-07T09:51:49.723Z,1004.03
2018-12-07T09:52:49.718Z,1004.05
2018-12-07T09:53:49.727Z,1003.96
2018-12-07T09:54:49.688Z,1004.00
2018-12-07T09:55:49.719Z,1003.97
2018-12-07T09:56:49.667Z,1003.93
2018-12-07T09:57:49.650Z,1003.90
2018-12-07T09:58:49.644Z,1003.94
2018-12-07T09:59:49.661Z,1003.95
2018-12-07T10:00:49.615Z,1003.94
2018-12-07T10:01:49.605Z,1003.85
2018-12-07T10:02:49.602Z,1003.84
2018-12-07T10:03:49.579Z,1003.85
2018-12-07T10:04:49.602Z,1003.84
2018-12-07T10:05:49.570Z,1003.85
2018-12-07T10:06:49.555Z,1003.83
2018-12-07T10:07:49.543Z,1003.77
2018-12-07T10:08:49.526Z,1003.74
2018-12-07T10:09:49.517Z,1003.76
2018-12-07T10:10:49.538Z,1003.67
2018-12-07T10:11:49.584Z,1003.67
2018-12-07T10:12:49.486Z,1003.72
2018-12-07T10:13:49.479Z,1003.63
2018-12-07T10:14:49.465Z,1003.62
2018-12-07T10:15:49.461Z,1003.57
2018-12-07T10:16:49.473Z,1003.55
2018-12-07T10:17:49.435Z,1003.44
2018-12-07T10:18:49.430Z,1003.43
2018-12-07T10:19:49.425Z,1003.47
2018-12-07T10:20:49.392Z,1003.37
2018-12-07T10:21:49.428Z,1003.29
2018-12-07T10:22:49.407Z,1003.31
2018-12-07T10:23:49.376Z,1003.25
2018-12-07T10:24:49.359Z,1003.24
2018-12-07T10:25:49.339Z,1003.09
2018-12-07T10:26:49.377Z,1003.19
2018-12-07T10:27:49.342Z,1003.19
2018-12-07T10:28:49.310Z,1003.20
2018-12-07T10:29:49.301Z,1003.17
2018-12-07T10:30:49.308Z,1003.13
2018-12-07T10:31:49.329Z,1003.15
2018-12-07T10:32:49.261Z,1003.09
2018-12-07T10:33:49.257Z,1003.09
2018-12-07T10:34:49.250Z,1003.20
2018-12-07T10:35:49.259Z,1003.04
2018-12-07T10:36:49.349Z,1003.07
2018-12-07T10:37:49.212Z,1003.13
2018-12-07T10:38:49.209Z,1003.13
2018-12-07T10:39:49.186Z,1003.17
2018-12-07T10:40:49.240Z,1003.13
2018-12-07T10:41:49.172Z,1003.12
2018-12-07T10:42:49.182Z,1003.02
2018-12-07T10:43:49.140Z,1003.03
2018-12-07T10:44:49.134Z,1003.02
2018-12-07T10:45:49.120Z,1003.02
2018-12-07T10:46:49.116Z,1002.97
2018-12-07T10:47:50.456Z,1002.94
2018-12-07T10:48:49.086Z,1002.89
2018-12-07T10:49:49.077Z,1002.89
2018-12-07T10:50:49.063Z,1002.90
2018-12-07T10:51:49.057Z,1002.87
2018-12-07T10:52:49.045Z,1002.78
2018-12-07T10:53:49.060Z,1002.79
2018-12-07T10:54:49.082Z,1002.75
2018-12-07T10:55:49.012Z,1002.71
2018-12-07T10:56:49.003Z,1002.72
2018-12-07T10:57:48.996Z,1002.63
2018-12-07T10:58:48.982Z,1002.61
2018-12-07T10:59:49.005Z,1002.55
2018-12-07T11:00:48.951Z,1002.62
2018-12-07T11:01:48.943Z,1002.41
2018-12-07T11:02:48.932Z,1002.49
2018-12-07T11:03:48.925Z,1002.47
2018-12-07T11:04:48.951Z,1002.43
2018-12-07T11:05:48.899Z,1002.40
2018-12-07T11:06:48.886Z,1002.30
2018-12-07T11:07:48.874Z,1002.25
2018-12-07T11:08:48.870Z,1002.25
2018-12-07T11:09:48.850Z,1002.25
2018-12-07T11:10:48.878Z,1002.23
2018-12-07T11:11:48.834Z,1002.25
2018-12-07T11:12:48.821Z,1002.17
2018-12-07T11:13:48.806Z,1002.11
2018-12-07T11:14:48.798Z,1002.11
2018-12-07T11:15:48.923Z,1002.05
2018-12-07T11:16:48.799Z,1002.05
2018-12-07T11:17:48.770Z,1002.06
2018-12-07T11:18:48.778Z,1001.97
2018-12-07T11:19:48.750Z,1002.07
2018-12-07T11:20:48.726Z,1001.97
2018-12-07T11:21:48.764Z,1002.00
2018-12-07T11:22:48.710Z,1001.93
2018-12-07T11:23:48.704Z,1001.97
2018-12-07T11:24:48.713Z,1001.92
2018-12-07T11:25:48.673Z,1001.85
2018-12-07T11:26:48.664Z,1001.93
2018-12-07T11:27:48.683Z,1001.84
2018-12-07T11:28:48.641Z,1001.92
2018-12-07T11:29:48.629Z,1001.86
2018-12-07T11:30:48.619Z,1001.82
2018-12-07T11:31:48.618Z,1001.73
2018-12-07T11:32:48.596Z,1001.76
2018-12-07T11:33:48.621Z,1001.80
2018-12-07T11:34:48.609Z,1001.71
2018-12-07T11:35:48.559Z,1001.71
2018-12-07T11:36:48.551Z,1001.62
2018-12-07T11:37:48.544Z,1001.63
2018-12-07T11:38:48.527Z,1001.59
2018-12-07T11:39:48.584Z,1001.48
2018-12-07T11:40:48.503Z,1001.57
2018-12-07T11:41:48.497Z,1001.51
2018-12-07T11:42:48.483Z,1001.38
2018-12-07T11:43:48.471Z,1001.32
2018-12-07T11:44:48.495Z,1001.27
2018-12-07T11:45:48.460Z,1001.20
2018-12-07T11:46:48.465Z,1001.14
2018-12-07T11:47:48.433Z,1001.05
2018-12-07T11:48:48.420Z,1000.93
2018-12-07T11:49:48.431Z,1000.86
2018-12-07T11:50:48.430Z,1000.84
2018-12-07T11:51:48.385Z,1000.79
2018-12-07T11:52:48.372Z,1000.75
2018-12-07T11:53:48.362Z,1000.69
2018-12-07T11:54:48.407Z,1000.58
2018-12-07T11:55:48.447Z,1000.72
2018-12-07T11:56:48.324Z,1000.58
2018-12-07T11:57:48.325Z,1000.52
2018-12-07T11:58:48.311Z,1000.45
2018-12-07T11:59:48.321Z,1000.44
2018-12-07T12:00:48.290Z,1000.38
2018-12-07T12:01:48.271Z,1000.36
2018-12-07T12:02:48.265Z,1000.29
2018-12-07T12:03:48.250Z,1000.30
2018-12-07T12:04:48.243Z,1000.29
2018-12-07T12:05:48.261Z,1000.20